createdAt,value
2022-09-23T00:01:38.238Z,12.09
2022-09-23T00:04:06.312Z,12.24
2022-09-23T00:06:34.223Z,12.19
2022-09-23T00:09:02.106Z,12.09
2022-09-23T00:11:30.599Z,12.11
2022-09-23T00:14:00.682Z,12.07
2022-09-23T00:16:30.891Z,12.01
2022-09-23T00:19:00.912Z,11.93
2022-09-23T00:21:29.168Z,11.91
2022-09-23T00:23:57.312Z,11.84
2022-09-23T00:26:25.558Z,11.73
2022-09-23T00:28:53.553Z,11.76
2022-09-23T00:31:23.733Z,11.71
2022-09-23T00:33:55.495Z,11.60
2022-09-23T00:36:25.131Z,11.74
2022-09-23T00:38:53.232Z,11.60
2022-09-23T00:41:22.160Z,11.67
2022-09-23T00:43:52.220Z,11.67
2022-09-23T00:46:23.517Z,11.59
2022-09-23T00:48:59.084Z,11.66
2022-09-23T00:51:34.412Z,11.46
2022-09-23T00:54:03.671Z,11.52
2022-09-23T00:56:33.070Z,11.50
2022-09-23T00:59:02.258Z,11.47
2022-09-23T01:01:30.206Z,11.43
2022-09-23T01:03:59.080Z,11.33
2022-09-23T01:06:29.385Z,11.35
2022-09-23T01:08:57.272Z,11.32
2022-09-23T01:11:41.133Z,11.30
2022-09-23T01:14:37.867Z,11.34
2022-09-23T01:17:10.598Z,11.33
2022-09-23T01:20:06.659Z,11.35
2022-09-23T01:22:43.091Z,11.25
2022-09-23T01:25:37.276Z,11.23
2022-09-23T01:28:23.203Z,11.23
2022-09-23T01:30:58.606Z,11.29
2022-09-23T01:33:34.907Z,11.29
2022-09-23T01:36:16.135Z,11.27
2022-09-23T01:38:53.571Z,11.17
2022-09-23T01:41:37.153Z,11.27
2022-09-23T01:44:10.613Z,11.42
2022-09-23T01:46:44.882Z,11.49
2022-09-23T01:49:18.827Z,11.61
2022-09-23T01:51:50.641Z,11.63
2022-09-23T01:54:24.470Z,11.57
2022-09-23T01:56:58.744Z,11.63
2022-09-23T01:59:32.894Z,11.65
2022-09-23T02:02:08.581Z,11.62
2022-09-23T02:04:41.140Z,11.60
2022-09-23T02:07:15.116Z,11.68
2022-09-23T02:09:47.188Z,11.49
2022-09-23T02:12:20.704Z,11.59
2022-09-23T02:14:54.166Z,11.67
2022-09-23T02:17:25.964Z,11.62
2022-09-23T02:19:58.527Z,11.58
2022-09-23T02:22:30.873Z,11.53
2022-09-23T02:24:59.296Z,11.54
2022-09-23T02:27:32.905Z,11.56
2022-09-23T02:30:08.852Z,11.55
2022-09-23T02:32:48.036Z,11.62
2022-09-23T02:35:22.592Z,11.63
2022-09-23T02:37:58.692Z,11.72
2022-09-23T02:40:35.496Z,11.73
2022-09-23T02:43:08.444Z,11.80
2022-09-23T02:45:38.959Z,11.75
2022-09-23T02:48:14.684Z,11.70
2022-09-23T02:50:42.757Z,11.68
2022-09-23T02:53:10.784Z,11.71
2022-09-23T02:55:38.693Z,11.80
2022-09-23T02:58:06.670Z,11.80
2022-09-23T03:00:57.134Z,11.79
2022-09-23T03:03:41.787Z,11.83
2022-09-23T03:06:25.951Z,11.77
2022-09-23T03:08:59.269Z,11.76
2022-09-23T03:11:27.494Z,11.77
2022-09-23T03:14:07.439Z,11.76
2022-09-23T03:16:43.689Z,11.81
2022-09-23T03:19:26.332Z,11.81
2022-09-23T03:22:02.039Z,11.75
2022-09-23T03:24:32.322Z,11.80
2022-09-23T03:27:04.226Z,11.82
2022-09-23T03:29:37.303Z,11.79
2022-09-23T03:32:08.097Z,11.81
2022-09-23T03:34:39.562Z,11.78
2022-09-23T03:37:14.193Z,11.80
2022-09-23T03:39:45.344Z,11.81
2022-09-23T03:42:18.189Z,11.71
2022-09-23T03:44:47.658Z,11.80
2022-09-23T03:47:17.116Z,11.66
2022-09-23T03:49:48.617Z,11.61
2022-09-23T03:52:17.180Z,11.53
2022-09-23T03:54:45.538Z,11.54
2022-09-23T03:57:14.139Z,11.55
2022-09-23T03:59:42.467Z,11.55
2022-09-23T04:02:11.877Z,11.43
2022-09-23T04:04:41.043Z,11.41
2022-09-23T04:07:11.013Z,11.55
2022-09-23T04:09:39.265Z,11.48
2022-09-23T04:12:07.859Z,11.43
2022-09-23T04:14:35.824Z,11.44
2022-09-23T04:17:03.842Z,11.46
2022-09-23T04:19:31.907Z,11.46
2022-09-23T04:21:59.840Z,11.49
2022-09-23T04:24:29.529Z,11.48
2022-09-23T04:26:58.020Z,11.42
2022-09-23T04:29:27.247Z,11.40
2022-09-23T04:31:55.590Z,11.45
2022-09-23T04:34:23.562Z,11.47
2022-09-23T04:36:51.640Z,11.58
2022-09-23T04:39:19.792Z,11.55
2022-09-23T04:41:49.234Z,11.56
2022-09-23T04:44:17.317Z,11.52
2022-09-23T04:46:47.375Z,11.49
2022-09-23T04:49:21.015Z,11.40
2022-09-23T04:51:49.064Z,11.45
2022-09-23T04:54:16.989Z,11.42
2022-09-23T04:56:44.919Z,11.36
2022-09-23T04:59:14.333Z,11.45
2022-09-23T05:01:42.336Z,11.49
2022-09-23T05:04:13.782Z,11.47
2022-09-23T05:06:45.114Z,11.44
2022-09-23T05:09:17.249Z,11.42
2022-09-23T05:11:46.051Z,11.43
2022-09-23T05:14:15.698Z,11.45
2022-09-23T05:16:43.746Z,11.37
2022-09-23T05:19:13.436Z,11.45
2022-09-23T05:21:41.575Z,11.50
2022-09-23T05:24:09.854Z,11.49
2022-09-23T05:26:38.300Z,11.63
2022-09-23T05:29:06.348Z,11.65
2022-09-23T05:31:36.708Z,11.65
2022-09-23T05:34:06.331Z,11.74
2022-09-23T05:36:39.021Z,11.83
2022-09-23T05:39:08.565Z,11.94
2022-09-23T05:41:37.370Z,12.07
2022-09-23T05:44:05.812Z,12.11
2022-09-23T05:46:35.241Z,12.19
2022-09-23T05:49:04.329Z,12.23
2022-09-23T05:51:33.927Z,12.39
2022-09-23T05:54:03.049Z,12.42
2022-09-23T05:56:32.117Z,12.47
2022-09-23T05:59:02.033Z,12.48
2022-09-23T06:01:33.551Z,12.46
2022-09-23T06:04:05.409Z,12.51
2022-09-23T06:06:35.404Z,12.51
2022-09-23T06:09:04.246Z,12.87
2022-09-23T06:11:33.290Z,12.70
2022-09-23T06:14:04.847Z,12.71
2022-09-23T06:16:35.103Z,12.55
2022-09-23T06:19:06.988Z,12.70
2022-09-23T06:21:37.496Z,12.93
2022-09-23T06:24:06.594Z,13.01
2022-09-23T06:26:35.465Z,13.04
2022-09-23T06:29:04.292Z,12.95
2022-09-23T06:31:32.979Z,12.94
2022-09-23T06:34:12.563Z,12.96
2022-09-23T06:36:44.855Z,13.00
2022-09-23T06:39:14.807Z,13.23
2022-09-23T06:41:42.780Z,13.19
2022-09-23T06:44:14.000Z,13.08
2022-09-23T06:46:42.301Z,13.39
2022-09-23T06:49:13.375Z,13.45
2022-09-23T06:51:42.945Z,13.45
2022-09-23T06:54:11.305Z,13.67
2022-09-23T06:56:40.011Z,13.70
2022-09-23T06:59:10.679Z,13.72
2022-09-23T07:01:38.747Z,13.67
2022-09-23T07:04:07.354Z,13.71
2022-09-23T07:06:35.601Z,14.00
2022-09-23T07:09:06.193Z,14.06
2022-09-23T07:11:34.367Z,13.91
2022-09-23T07:14:02.975Z,14.06
2022-09-23T07:16:31.674Z,14.22
2022-09-23T07:18:59.896Z,14.39
2022-09-23T07:21:30.596Z,15.64
2022-09-23T07:23:58.894Z,16.03
2022-09-23T07:26:29.494Z,15.46
2022-09-23T07:29:04.674Z,15.64
2022-09-23T07:31:39.094Z,16.12
2022-09-23T07:34:08.680Z,18.26
2022-09-23T07:36:40.548Z,20.06
2022-09-23T07:39:09.617Z,18.74
2022-09-23T07:41:39.760Z,17.36
2022-09-23T07:44:08.752Z,16.48
2022-09-23T07:46:37.333Z,16.02
2022-09-23T07:49:06.764Z,16.05
2022-09-23T07:51:37.139Z,16.28
2022-09-23T07:54:08.682Z,17.15
2022-09-23T07:56:37.794Z,16.43
2022-09-23T07:59:09.366Z,16.33
2022-09-23T08:01:39.980Z,16.20
2022-09-23T08:04:11.936Z,16.26
2022-09-23T08:06:42.583Z,16.43
2022-09-23T08:09:11.422Z,16.57
2022-09-23T08:11:42.055Z,16.64
2022-09-23T08:14:13.471Z,16.84
2022-09-23T08:16:41.793Z,17.34
2022-09-23T08:19:10.212Z,18.81
2022-09-23T08:21:39.305Z,20.45
2022-09-23T08:24:08.753Z,20.52
2022-09-23T08:26:37.738Z,19.51
2022-09-23T08:29:09.738Z,19.64
2022-09-23T08:31:39.047Z,19.33
2022-09-23T08:34:07.776Z,20.46
2022-09-23T08:36:36.415Z,19.87
2022-09-23T08:39:05.225Z,19.71
2022-09-23T08:41:40.860Z,18.96
2022-09-23T08:44:14.864Z,19.14
2022-09-23T08:46:49.286Z,20.92
2022-09-23T08:49:25.496Z,21.87
2022-09-23T08:51:56.023Z,20.63
2022-09-23T08:54:32.621Z,20.61
2022-09-23T08:57:04.031Z,21.99
2022-09-23T08:59:41.691Z,24.29
2022-09-23T09:02:19.035Z,23.76
2022-09-23T09:04:50.544Z,22.10
2022-09-23T09:07:38.817Z,22.96
2022-09-23T09:10:16.417Z,25.13
2022-09-23T09:12:46.444Z,22.95
2022-09-23T09:15:16.975Z,22.05
2022-09-23T09:18:01.274Z,20.98
2022-09-23T09:20:52.923Z,20.25
2022-09-23T09:23:24.016Z,19.89
2022-09-23T09:25:54.095Z,20.44
2022-09-23T09:28:32.874Z,23.71
2022-09-23T09:31:06.857Z,26.02
2022-09-23T09:33:45.745Z,24.46
2022-09-23T09:36:30.828Z,21.83
2022-09-23T09:38:59.641Z,22.19
2022-09-23T09:41:32.625Z,21.64
2022-09-23T09:44:03.598Z,23.63
2022-09-23T09:46:54.549Z,24.23
2022-09-23T09:49:36.769Z,23.23
2022-09-23T09:52:29.530Z,24.95
2022-09-23T09:55:17.155Z,26.64
2022-09-23T09:57:50.092Z,24.77
2022-09-23T10:00:20.309Z,23.37
2022-09-23T10:02:53.008Z,23.18
2022-09-23T10:05:31.882Z,24.20
2022-09-23T10:08:23.124Z,23.80
2022-09-23T10:10:54.544Z,23.24
2022-09-23T10:13:24.116Z,22.14
2022-09-23T10:15:54.771Z,22.06
2022-09-23T10:18:30.534Z,22.41
2022-09-23T10:21:07.740Z,22.02
2022-09-23T10:23:41.322Z,22.01
2022-09-23T10:26:11.145Z,22.27
2022-09-23T10:28:47.473Z,22.58
2022-09-23T10:31:17.857Z,22.32
2022-09-23T10:33:50.166Z,22.08
2022-09-23T10:36:19.849Z,22.34
2022-09-23T10:38:52.007Z,22.52
2022-09-23T10:41:50.482Z,22.69
2022-09-23T10:44:49.055Z,22.81
2022-09-23T10:47:32.177Z,23.18
2022-09-23T10:50:15.287Z,22.49
2022-09-23T10:52:57.601Z,22.70
2022-09-23T10:55:38.256Z,22.97
2022-09-23T10:58:28.962Z,23.95
2022-09-23T11:01:14.939Z,24.68
2022-09-23T11:03:58.417Z,23.97
2022-09-23T11:06:35.439Z,24.03
2022-09-23T11:09:20.722Z,23.83
2022-09-23T11:12:03.426Z,23.49
2022-09-23T11:15:16.734Z,23.36
2022-09-23T11:18:16.652Z,24.03
2022-09-23T11:20:52.810Z,24.24
2022-09-23T11:23:48.403Z,23.89
2022-09-23T11:26:33.446Z,23.85
2022-09-23T11:29:18.259Z,23.64
2022-09-23T11:31:59.318Z,23.85
2022-09-23T11:34:55.922Z,23.75
2022-09-23T11:37:29.478Z,23.61
2022-09-23T11:40:03.216Z,23.70
2022-09-23T11:42:36.581Z,23.81
2022-09-23T11:45:18.973Z,23.45
2022-09-23T11:47:53.751Z,23.46
2022-09-23T11:50:28.078Z,23.66
2022-09-23T11:53:03.895Z,23.40
2022-09-23T11:55:49.398Z,23.39
2022-09-23T11:58:27.551Z,23.15
2022-09-23T12:01:01.655Z,23.09
2022-09-23T12:03:45.091Z,23.09
2022-09-23T12:06:19.382Z,23.02
2022-09-23T12:09:01.839Z,22.93
2022-09-23T12:11:38.769Z,22.80
2022-09-23T12:14:19.387Z,23.10
2022-09-23T12:17:14.849Z,22.57
2022-09-23T12:19:59.451Z,22.80
2022-09-23T12:22:50.338Z,22.84
2022-09-23T12:25:32.735Z,22.92
2022-09-23T12:28:05.093Z,22.69
2022-09-23T12:30:39.350Z,22.92
2022-09-23T12:33:12.340Z,22.74
2022-09-23T12:35:46.559Z,22.97
2022-09-23T12:38:19.493Z,22.61
2022-09-23T12:40:48.618Z,22.33
2022-09-23T12:43:19.838Z,22.37
2022-09-23T12:45:51.111Z,22.37
2022-09-23T12:48:59.369Z,22.10
2022-09-23T12:51:28.279Z,21.99
2022-09-23T12:54:24.292Z,22.04
2022-09-23T12:57:03.286Z,21.97
2022-09-23T12:59:32.687Z,22.12
2022-09-23T13:02:26.781Z,22.13
2022-09-23T13:05:17.787Z,22.04
2022-09-23T13:07:48.979Z,22.10
2022-09-23T13:10:23.739Z,21.56
2022-09-23T13:12:53.611Z,21.89
2022-09-23T13:15:29.909Z,22.08
2022-09-23T13:18:50.391Z,22.12
2022-09-23T13:21:40.477Z,21.91
2022-09-23T13:24:21.349Z,21.66
2022-09-23T13:26:52.391Z,22.02
2022-09-23T13:29:27.708Z,21.79
2022-09-23T13:31:58.054Z,21.70
2022-09-23T13:34:30.396Z,21.85
2022-09-23T13:36:59.431Z,21.72
2022-09-23T13:39:30.123Z,21.80
2022-09-23T13:42:03.015Z,21.60
2022-09-23T13:44:31.379Z,21.64
2022-09-23T13:47:03.206Z,21.60
2022-09-23T13:49:35.415Z,21.59
2022-09-23T13:52:04.771Z,21.48
2022-09-23T13:54:36.360Z,21.19
2022-09-23T13:57:04.975Z,21.14
2022-09-23T13:59:38.894Z,21.49
2022-09-23T14:02:11.582Z,21.59
2022-09-23T14:04:40.127Z,21.37
2022-09-23T14:07:10.562Z,21.70
2022-09-23T14:09:43.848Z,21.22
2022-09-23T14:12:12.317Z,21.30
2022-09-23T14:14:41.970Z,21.69
2022-09-23T14:17:15.682Z,21.17
2022-09-23T14:19:43.955Z,21.56
2022-09-23T14:22:24.212Z,21.41
2022-09-23T14:24:55.500Z,21.46
2022-09-23T14:27:29.073Z,21.36
2022-09-23T14:29:57.877Z,21.38
2022-09-23T14:32:28.722Z,21.11
2022-09-23T14:35:17.217Z,21.59
2022-09-23T14:38:05.810Z,21.33
2022-09-23T14:40:38.801Z,21.21
2022-09-23T14:43:12.612Z,21.37
2022-09-23T14:45:41.916Z,21.36
2022-09-23T14:48:15.428Z,21.31
2022-09-23T14:50:49.107Z,21.20
2022-09-23T14:53:36.952Z,20.92
2022-09-23T14:56:20.897Z,20.82
2022-09-23T14:58:53.262Z,21.01
2022-09-23T15:01:39.593Z,20.93
2022-09-23T15:04:14.112Z,20.77
2022-09-23T15:06:47.601Z,20.85
2022-09-23T15:09:21.698Z,20.78
2022-09-23T15:11:52.893Z,20.79
2022-09-23T15:14:37.234Z,20.80
2022-09-23T15:17:14.620Z,20.80
2022-09-23T15:19:42.661Z,20.78
2022-09-23T15:22:11.191Z,20.80
2022-09-23T15:24:44.776Z,20.50
2022-09-23T15:27:30.689Z,20.67
2022-09-23T15:30:17.275Z,20.78
2022-09-23T15:32:45.902Z,20.66
2022-09-23T15:35:16.443Z,20.67
2022-09-23T15:37:44.844Z,20.82
2022-09-23T15:40:20.677Z,20.51
2022-09-23T15:42:52.615Z,20.52
2022-09-23T15:45:22.301Z,20.38
2022-09-23T15:47:52.174Z,20.20
2022-09-23T15:50:20.777Z,20.32
2022-09-23T15:52:48.727Z,20.42
2022-09-23T15:55:18.081Z,20.50
2022-09-23T15:57:45.997Z,20.50
2022-09-23T16:00:16.926Z,20.29
2022-09-23T16:02:47.397Z,20.29
2022-09-23T16:05:23.770Z,20.29
2022-09-23T16:07:53.373Z,20.28
2022-09-23T16:10:23.358Z,20.22
2022-09-23T16:12:54.038Z,20.19
2022-09-23T16:15:25.177Z,20.28
2022-09-23T16:17:53.202Z,20.04
2022-09-23T16:20:21.169Z,20.25
2022-09-23T16:22:54.664Z,20.17
2022-09-23T16:25:25.238Z,20.21
2022-09-23T16:27:55.308Z,20.21
2022-09-23T16:30:25.385Z,20.22
2022-09-23T16:32:53.826Z,20.09
2022-09-23T16:35:22.857Z,20.02
2022-09-23T16:37:51.627Z,20.04
2022-09-23T16:40:21.678Z,20.02
2022-09-23T16:42:52.006Z,19.91
2022-09-23T16:45:22.273Z,20.05
2022-09-23T16:47:52.982Z,20.00
2022-09-23T16:50:23.607Z,19.93
2022-09-23T16:52:54.731Z,19.83
2022-09-23T16:55:25.670Z,19.76
2022-09-23T16:57:54.592Z,19.76
2022-09-23T17:00:41.135Z,19.58
2022-09-23T17:03:30.714Z,19.61
2022-09-23T17:05:59.055Z,19.60
2022-09-23T17:08:26.986Z,19.62
2022-09-23T17:11:00.151Z,19.64
2022-09-23T17:13:29.501Z,19.60
2022-09-23T17:15:57.657Z,19.49
2022-09-23T17:18:27.331Z,19.58
2022-09-23T17:21:00.534Z,19.49
2022-09-23T17:23:28.351Z,19.49
2022-09-23T17:25:56.578Z,19.54
2022-09-23T17:28:25.289Z,19.38
2022-09-23T17:30:58.568Z,19.35
2022-09-23T17:33:29.476Z,19.40
2022-09-23T17:36:00.042Z,19.41
2022-09-23T17:38:29.415Z,19.31
2022-09-23T17:41:01.310Z,19.30
2022-09-23T17:43:31.535Z,19.43
2022-09-23T17:46:05.208Z,19.34
2022-09-23T17:48:36.087Z,19.11
2022-09-23T17:51:06.550Z,19.16
2022-09-23T17:53:37.155Z,19.12
2022-09-23T17:56:06.970Z,19.04
2022-09-23T17:58:36.531Z,19.00
2022-09-23T18:01:05.861Z,18.94
2022-09-23T18:03:35.338Z,18.93
2022-09-23T18:06:08.310Z,18.84
2022-09-23T18:08:36.375Z,18.71
2022-09-23T18:11:12.830Z,18.67
2022-09-23T18:13:40.894Z,18.71
2022-09-23T18:16:08.817Z,18.83
2022-09-23T18:18:38.241Z,18.86
2022-09-23T18:21:07.546Z,18.81
2022-09-23T18:23:36.967Z,18.77
2022-09-23T18:26:05.590Z,18.81
2022-09-23T18:28:35.012Z,18.74
2022-09-23T18:31:03.063Z,18.64
2022-09-23T18:33:31.015Z,18.55
2022-09-23T18:36:02.210Z,18.51
2022-09-23T18:38:30.119Z,18.57
2022-09-23T18:41:00.306Z,18.43
2022-09-23T18:43:37.247Z,18.52
2022-09-23T18:46:09.281Z,18.34
2022-09-23T18:48:54.591Z,18.32
2022-09-23T18:51:25.557Z,18.24
2022-09-23T18:53:57.520Z,18.09
2022-09-23T18:56:27.023Z,18.09
2022-09-23T18:58:56.105Z,17.99
2022-09-23T19:01:25.136Z,17.94
2022-09-23T19:03:56.322Z,17.95
2022-09-23T19:06:26.459Z,17.97
2022-09-23T19:08:56.194Z,18.04
2022-09-23T19:11:24.954Z,17.98
2022-09-23T19:13:56.493Z,18.00
2022-09-23T19:16:25.859Z,17.87
2022-09-23T19:18:54.634Z,17.88
2022-09-23T19:21:24.978Z,17.87
2022-09-23T19:23:55.020Z,17.76
2022-09-23T19:26:25.920Z,17.78
2022-09-23T19:28:55.378Z,17.85
2022-09-23T19:31:25.571Z,17.82
2022-09-23T19:33:56.447Z,17.87
2022-09-23T19:36:28.920Z,17.80
2022-09-23T19:38:58.457Z,17.76
2022-09-23T19:41:28.065Z,17.78
2022-09-23T19:43:58.763Z,17.69
2022-09-23T19:46:27.460Z,17.80
2022-09-23T19:48:56.662Z,17.84
2022-09-23T19:51:25.545Z,17.77
2022-09-23T19:54:00.213Z,17.82
2022-09-23T19:56:29.450Z,17.84
2022-09-23T19:58:58.310Z,17.89
2022-09-23T20:01:27.857Z,17.85
2022-09-23T20:03:56.529Z,17.77
2022-09-23T20:06:25.260Z,17.83
2022-09-23T20:08:53.513Z,17.84
2022-09-23T20:11:28.417Z,17.78
2022-09-23T20:14:01.508Z,17.80
2022-09-23T20:16:34.295Z,17.86
2022-09-23T20:19:04.208Z,17.85
2022-09-23T20:21:33.732Z,17.94
2022-09-23T20:24:04.468Z,17.87
2022-09-23T20:26:51.558Z,17.91
2022-09-23T20:29:19.769Z,17.82
2022-09-23T20:31:48.336Z,17.94
2022-09-23T20:34:16.764Z,17.94
2022-09-23T20:36:45.030Z,17.91
2022-09-23T20:39:13.376Z,17.78
2022-09-23T20:41:42.774Z,17.59
2022-09-23T20:44:14.091Z,17.75
2022-09-23T20:46:48.212Z,17.77
2022-09-23T20:49:18.324Z,17.73
2022-09-23T20:51:48.767Z,17.63
2022-09-23T20:54:18.919Z,17.66
2022-09-23T20:56:49.672Z,17.69
2022-09-23T20:59:18.310Z,17.64
2022-09-23T21:01:47.996Z,17.69
2022-09-23T21:04:16.356Z,17.68
2022-09-23T21:06:44.414Z,17.60
2022-09-23T21:09:12.516Z,17.65
2022-09-23T21:11:40.653Z,17.65
2022-09-23T21:14:11.145Z,17.66
2022-09-23T21:16:40.079Z,17.65
2022-09-23T21:19:08.624Z,17.50
2022-09-23T21:21:36.946Z,17.39
2022-09-23T21:24:33.646Z,17.35
2022-09-23T21:26:54.140Z,17.29
2022-09-23T21:29:23.896Z,17.26
2022-09-23T21:31:52.090Z,17.15
2022-09-23T21:34:20.055Z,17.00
2022-09-23T21:36:49.022Z,17.00
2022-09-23T21:39:17.272Z,17.08
2022-09-23T21:41:45.816Z,17.10
2022-09-23T21:44:14.286Z,16.96
2022-09-23T21:46:44.675Z,16.96
2022-09-23T21:49:13.307Z,16.90
2022-09-23T21:51:42.720Z,16.97
2022-09-23T21:54:14.728Z,16.97
2022-09-23T21:56:44.207Z,17.07
2022-09-23T21:59:13.559Z,17.07
2022-09-23T22:01:49.359Z,17.14
2022-09-23T22:04:22.701Z,16.95
2022-09-23T22:06:53.851Z,17.05
2022-09-23T22:09:22.871Z,16.97
2022-09-23T22:12:08.638Z,16.99
2022-09-23T22:14:39.118Z,16.92
2022-09-23T22:17:10.626Z,16.83
2022-09-23T22:19:45.975Z,16.89
2022-09-23T22:22:17.612Z,16.79
2022-09-23T22:24:47.673Z,16.86
2022-09-23T22:27:19.773Z,16.84
2022-09-23T22:30:05.780Z,16.86
2022-09-23T22:32:41.743Z,16.83
2022-09-23T22:35:11.535Z,16.79
2022-09-23T22:37:40.350Z,16.78
2022-09-23T22:40:11.125Z,16.75
2022-09-23T22:42:41.309Z,16.81
2022-09-23T22:45:12.956Z,16.76
2022-09-23T22:47:45.516Z,16.71
2022-09-23T22:50:15.166Z,16.70
2022-09-23T22:52:43.830Z,16.64
2022-09-23T22:55:12.485Z,16.70
2022-09-23T22:57:40.576Z,16.66
2022-09-23T23:00:12.147Z,16.68
2022-09-23T23:02:40.359Z,16.64
2022-09-23T23:05:10.209Z,16.69
2022-09-23T23:07:38.136Z,16.69
2022-09-23T23:10:10.120Z,16.67
2022-09-23T23:12:39.468Z,16.71
2022-09-23T23:15:09.310Z,16.63
2022-09-23T23:17:38.254Z,16.57
2022-09-23T23:20:09.461Z,16.62
2022-09-23T23:22:37.459Z,16.61
2022-09-23T23:25:06.161Z,16.47
2022-09-23T23:27:35.872Z,16.43
2022-09-23T23:30:04.630Z,16.40
2022-09-23T23:32:32.603Z,16.52
2022-09-23T23:35:00.697Z,16.41
2022-09-23T23:37:31.018Z,16.47
2022-09-23T23:39:58.936Z,16.45
2022-09-23T23:42:28.099Z,16.56
2022-09-23T23:44:56.145Z,16.53
2022-09-23T23:47:24.145Z,16.52
2022-09-23T23:49:52.270Z,16.40
2022-09-23T23:52:20.194Z,16.47
2022-09-23T23:54:49.583Z,16.51
2022-09-23T23:57:17.525Z,16.61
2022-09-23T23:59:45.465Z,16.62
